This is the latest recevied weather packets stored in our database for station/object KN4MGS. If no packets are shown the sender has not sent any weather packets the latest 10 day(s).
| Time | Temp. | Humidity | Pressure | Rain* | Wind** | Luminosity | Snow |
|---|---|---|---|---|---|---|---|
| 1777067673 | 30° C | 36% | 1012.6 hPa | 0 mm | - | 267 W/m² | - |
| 1777067373 | 29.44° C | 36% | 1012.6 hPa | 0 mm | - | 283 W/m² | - |
| 1777067067 | 29.44° C | 37% | 1012.7 hPa | 0 mm | - | 306 W/m² | - |
| 1777066762 | 29.44° C | 37% | 1012.7 hPa | 0 mm | - | 299 W/m² | - |
| 1777066459 | 30° C | 36% | 1012.5 hPa | 0 mm | - | 331 W/m² | - |
| 1777066154 | 30° C | 37% | 1012.7 hPa | 0 mm | - | 340 W/m² | - |
| 1777065848 | 30° C | 36% | 1012.7 hPa | 0 mm | - | 365 W/m² | - |
| 1777065544 | 29.44° C | 37% | 1012.5 hPa | 0 mm | - | 392 W/m² | - |
| 1777065243 | 30° C | 37% | 1012.9 hPa | 0 mm | - | 337 W/m² | - |
| 1777064941 | 30.56° C | 36% | 1012.7 hPa | 0 mm | - | 398 W/m² | - |
| 1777064637 | 30° C | 35% | 1012.8 hPa | 0 mm | - | 386 W/m² | - |
| 1777064333 | 30° C | 36% | 1012.8 hPa | 0 mm | - | 316 W/m² | - |
| 1777064030 | 30° C | 35% | 1012.8 hPa | 0 mm | - | 400 W/m² | - |
| 1777063729 | 30.56° C | 35% | 1012.6 hPa | 0 mm | - | 472 W/m² | - |
| 1777063425 | 30° C | 36% | 1012.7 hPa | 0 mm | - | 470 W/m² | - |
| 1777063121 | 30.56° C | 35% | 1012.9 hPa | 0 mm | - | 432 W/m² | - |
| 1777062818 | 30.56° C | 36% | 1013 hPa | 0 mm | - | 475 W/m² | - |
| 1777062513 | 30° C | 36% | 1013.2 hPa | 0 mm | - | 484 W/m² | - |
| 1777062207 | 30.56° C | 35% | 1013.2 hPa | 0 mm | - | 545 W/m² | - |
| 1777061905 | 30° C | 36% | 1013.3 hPa | 0 mm | - | 553 W/m² | - |
| 1777061601 | 30.56° C | 37% | 1013.3 hPa | 0 mm | - | 586 W/m² | - |
* Rain latest hour (hover to see other rain measurements)
** Current wind speed in m/s (hover to see current wind gust speed)